Nuevo Baztan, Spain
Current Conditions -  °F | °C
As of 6:00 PM on Friday 24 Oct 2014 (Local Time) from LETO Reporting Station
Clear Clear  
Wind Chill: 81°   Ceiling: Unl
Heat Index: 81°   Visibility: 6mi
Dew Point: 46°   Wind: 13mph
Humidity: 30%   Direction: 40°NE
Pressure: 30.06"   Gusts: NA
Location:  40.37°N, 3.24°W
Report Text: LETO 241600Z 04011KT CAVOK 27/08 Q1018 NOSIG
Loading
Personal Weather Stations






























Interactive Weather Map New forecast layout! Learn more

10-Day Weather Forecast

Advertisements
Track Severe Weather on mobile